createdAt,value
2018-09-09T00:01:23.408Z,101333.77
2018-09-09T00:03:51.773Z,101337.64
2018-09-09T00:06:20.156Z,101337.20
2018-09-09T00:08:48.585Z,101341.07
2018-09-09T00:11:16.991Z,101341.94
2018-09-09T00:13:45.410Z,101338.50
2018-09-09T00:16:13.795Z,101335.07
2018-09-09T00:18:42.190Z,101331.67
2018-09-09T00:21:10.617Z,101325.66
2018-09-09T00:23:39.014Z,101318.36
2018-09-09T00:26:07.442Z,101317.92
2018-09-09T00:28:35.863Z,101329.05
2018-09-09T00:31:04.240Z,101329.48
2018-09-09T00:33:32.690Z,101320.08
2018-09-09T00:36:01.097Z,101329.91
2018-09-09T00:38:29.481Z,101341.08
2018-09-09T00:40:57.957Z,101332.04
2018-09-09T00:43:26.336Z,101311.85
2018-09-09T00:45:54.752Z,101323.88
2018-09-09T00:48:23.165Z,101346.20
2018-09-09T00:50:56.931Z,101321.22
2018-09-09T00:53:30.520Z,101321.22
2018-09-09T00:55:59.002Z,101329.38
2018-09-09T00:58:27.401Z,101339.25
2018-09-09T01:01:01.147Z,101326.79
2018-09-09T01:03:29.714Z,101330.22
2018-09-09T01:05:58.116Z,101325.50
2018-09-09T01:08:26.523Z,101319.50
2018-09-09T01:10:54.962Z,101319.93
2018-09-09T01:13:23.363Z,101315.64
2018-09-09T01:15:51.729Z,101301.48
2018-09-09T01:18:20.160Z,101301.05
2018-09-09T01:20:48.568Z,101286.08
2018-09-09T01:23:17.003Z,101277.06
2018-09-09T01:25:45.415Z,101298.53
2018-09-09T01:28:13.845Z,101310.48
2018-09-09T01:30:42.316Z,101311.31
2018-09-09T01:33:11.627Z,101327.14
2018-09-09T01:35:40.097Z,101331.86
2018-09-09T01:38:08.479Z,101332.30
2018-09-09T01:40:36.887Z,101337.02
2018-09-09T01:43:05.329Z,101336.59
2018-09-09T01:45:33.735Z,101338.78
2018-09-09T01:48:02.136Z,101346.08
2018-09-09T01:50:30.504Z,101347.38
2018-09-09T01:52:58.944Z,101341.81
2018-09-09T01:55:27.305Z,101337.52
2018-09-09T01:57:55.739Z,101347.40
2018-09-09T02:00:24.108Z,101339.67
2018-09-09T02:02:52.602Z,101341.39
2018-09-09T02:05:21.010Z,101340.10
2018-09-09T02:07:49.396Z,101341.82
2018-09-09T02:10:17.791Z,101345.25
2018-09-09T02:12:46.212Z,101343.53
2018-09-09T02:15:14.617Z,101343.95
2018-09-09T02:17:43.072Z,101334.48
2018-09-09T02:20:11.560Z,101333.16
2018-09-09T02:22:40.010Z,101337.00
2018-09-09T02:25:08.412Z,101333.99
2018-09-09T02:27:36.793Z,101333.58
2018-09-09T02:30:06.020Z,101321.56
2018-09-09T02:32:34.410Z,101335.73
2018-09-09T02:35:02.812Z,101338.30
2018-09-09T02:37:31.260Z,101342.56
2018-09-09T02:39:59.668Z,101336.56
2018-09-09T02:42:28.082Z,101340.44
2018-09-09T02:44:56.564Z,101348.59
2018-09-09T02:47:24.980Z,101349.02
2018-09-09T02:49:53.384Z,101343.01
2018-09-09T02:52:21.813Z,101337.44
2018-09-09T02:54:50.216Z,101321.56
2018-09-09T02:57:18.625Z,101331.44
2018-09-09T02:59:47.028Z,101337.02
2018-09-09T03:02:15.458Z,101337.02
2018-09-09T03:04:43.859Z,101334.01
2018-09-09T03:07:12.285Z,101346.87
2018-09-09T03:09:40.677Z,101348.57
2018-09-09T03:12:09.140Z,101348.99
2018-09-09T03:14:37.528Z,101342.56
2018-09-09T03:17:05.927Z,101352.42
2018-09-09T03:19:34.347Z,101340.84
2018-09-09T03:22:02.757Z,101323.70
2018-09-09T03:24:31.145Z,101328.86
2018-09-09T03:26:59.523Z,101335.73
2018-09-09T03:29:27.897Z,101311.69
2018-09-09T03:31:56.269Z,101295.38
2018-09-09T03:34:24.702Z,101310.80
2018-09-09T03:36:53.094Z,101336.98
2018-09-09T03:39:21.544Z,101342.14
2018-09-09T03:41:50.233Z,101332.72
2018-09-09T03:44:18.645Z,101334.02
2018-09-09T03:46:47.065Z,101337.45
2018-09-09T03:49:15.489Z,101330.62
2018-09-09T03:51:43.936Z,101333.20
2018-09-09T03:54:12.340Z,101328.48
2018-09-09T03:56:40.720Z,101326.34
2018-09-09T03:59:09.116Z,101329.77
2018-09-09T04:01:37.501Z,101334.48
2018-09-09T04:04:05.953Z,101334.92
2018-09-09T04:06:34.358Z,101328.91
2018-09-09T04:09:02.844Z,101332.77
2018-09-09T04:11:31.277Z,101329.72
2018-09-09T04:13:59.677Z,101321.99
2018-09-09T04:16:28.076Z,101316.84
2018-09-09T04:18:56.516Z,101310.88
2018-09-09T04:21:25.237Z,101312.98
2018-09-09T04:23:53.634Z,101321.17
2018-09-09T04:26:22.061Z,101298.83
2018-09-09T04:28:50.536Z,101301.39
2018-09-09T04:31:18.925Z,101318.14
2018-09-09T04:33:47.876Z,101326.28
2018-09-09T04:36:16.321Z,101328.86
2018-09-09T04:38:44.772Z,101324.11
2018-09-09T04:41:13.177Z,101329.70
2018-09-09T04:43:41.592Z,101330.12
2018-09-09T04:46:10.113Z,101335.28
2018-09-09T04:48:38.484Z,101337.86
2018-09-09T04:51:06.943Z,101335.27
2018-09-09T04:53:35.352Z,101342.56
2018-09-09T04:56:03.768Z,101342.98
2018-09-09T04:58:32.148Z,101336.98
2018-09-09T05:01:00.597Z,101343.42
2018-09-09T05:03:28.949Z,101351.58
2018-09-09T05:05:57.401Z,101352.00
2018-09-09T05:08:25.773Z,101354.58
2018-09-09T05:10:54.169Z,101361.45
2018-09-09T05:13:22.620Z,101361.02
2018-09-09T05:15:51.020Z,101373.45
2018-09-09T05:18:19.411Z,101373.02
2018-09-09T05:20:47.816Z,101372.59
2018-09-09T05:23:16.244Z,101367.89
2018-09-09T05:25:44.706Z,101351.13
2018-09-09T05:28:13.075Z,101347.72
2018-09-09T05:30:41.479Z,101346.02
2018-09-09T05:33:09.893Z,101343.02
2018-09-09T05:35:38.304Z,101341.30
2018-09-09T05:38:06.725Z,101340.45
2018-09-09T05:40:35.137Z,101362.34
2018-09-09T05:43:03.577Z,101367.53
2018-09-09T05:45:31.964Z,101379.94
2018-09-09T05:48:00.373Z,101384.70
2018-09-09T05:50:28.852Z,101396.73
2018-09-09T05:52:57.289Z,101396.30
2018-09-09T05:55:25.716Z,101387.30
2018-09-09T05:57:54.187Z,101387.73
2018-09-09T06:00:22.629Z,101386.88
2018-09-09T06:02:51.089Z,101385.17
2018-09-09T06:05:19.500Z,101391.20
2018-09-09T06:07:47.984Z,101391.64
2018-09-09T06:10:16.416Z,101380.91
2018-09-09T06:12:44.820Z,101388.26
2018-09-09T06:15:13.203Z,101389.13
2018-09-09T06:17:42.019Z,101396.86
2018-09-09T06:20:10.385Z,101403.33
2018-09-09T06:22:38.899Z,101406.34
2018-09-09T06:25:07.345Z,101408.05
2018-09-09T06:27:35.844Z,101409.77
2018-09-09T06:30:04.491Z,101414.08
2018-09-09T06:32:32.900Z,101409.36
2018-09-09T06:35:01.296Z,101414.13
2018-09-09T06:37:29.668Z,101419.28
2018-09-09T06:39:58.088Z,101419.30
2018-09-09T06:42:26.465Z,101422.74
2018-09-09T06:44:54.827Z,101420.61
2018-09-09T06:47:23.298Z,101421.91
2018-09-09T06:49:51.697Z,101417.23
2018-09-09T06:52:20.148Z,101420.67
2018-09-09T06:54:48.586Z,101411.66
2018-09-09T06:57:17.096Z,101411.66
2018-09-09T06:59:54.937Z,101413.39
2018-09-09T07:02:23.396Z,101408.67
2018-09-09T07:04:51.727Z,101413.41
2018-09-09T07:07:20.344Z,101404.39
2018-09-09T07:09:48.776Z,101406.19
2018-09-09T07:12:17.175Z,101417.80
2018-09-09T07:14:45.577Z,101413.94
2018-09-09T07:17:14.267Z,101420.81
2018-09-09T07:19:42.611Z,101416.09
2018-09-09T07:22:11.036Z,101422.11
2018-09-09T07:24:39.474Z,101424.73
2018-09-09T07:27:07.989Z,101420.88
2018-09-09T07:29:36.427Z,101420.89
2018-09-09T07:32:04.880Z,101424.77
2018-09-09T07:34:33.340Z,101417.03
2018-09-09T07:37:01.889Z,101419.61
2018-09-09T07:39:30.323Z,101430.83
2018-09-09T07:41:58.780Z,101428.25
2018-09-09T07:44:27.284Z,101434.28
2018-09-09T07:46:55.750Z,101431.70
2018-09-09T07:49:24.713Z,101436.01
2018-09-09T07:51:53.144Z,101435.19
2018-09-09T07:54:21.544Z,101442.07
2018-09-09T07:56:49.948Z,101448.09
2018-09-09T07:59:18.387Z,101447.23
2018-09-09T08:01:46.784Z,101451.58
2018-09-09T08:04:15.206Z,101453.73
2018-09-09T08:06:43.596Z,101442.55
2018-09-09T08:09:12.300Z,101446.85
2018-09-09T08:11:41.011Z,101448.61
2018-09-09T08:14:10.416Z,101448.17
2018-09-09T08:16:38.848Z,101440.86
2018-09-09T08:19:07.285Z,101435.27
2018-09-09T08:21:35.681Z,101438.70
2018-09-09T08:24:04.137Z,101440.42
2018-09-09T08:26:32.597Z,101434.83
2018-09-09T08:29:00.984Z,101440.85
2018-09-09T08:31:29.397Z,101438.70
2018-09-09T08:33:57.787Z,101437.02
2018-09-09T08:36:26.169Z,101412.88
2018-09-09T08:38:54.558Z,101440.02
2018-09-09T08:41:22.967Z,101447.78
2018-09-09T08:43:51.419Z,101443.94
2018-09-09T08:46:19.915Z,101442.20
2018-09-09T08:48:48.383Z,101445.64
2018-09-09T08:51:16.824Z,101446.50
2018-09-09T08:53:45.282Z,101445.67
2018-09-09T08:56:13.965Z,101443.52
2018-09-09T08:58:42.436Z,101453.84
2018-09-09T09:01:11.802Z,101451.26
2018-09-09T09:03:40.219Z,101448.67
2018-09-09T09:06:08.625Z,101448.66
2018-09-09T09:08:37.108Z,101457.70
2018-09-09T09:11:05.573Z,101450.78
2018-09-09T09:13:34.022Z,101452.52
2018-09-09T09:16:02.469Z,101447.77
2018-09-09T09:18:30.896Z,101439.55
2018-09-09T09:20:59.418Z,101441.69
2018-09-09T09:23:27.981Z,101445.98
2018-09-09T09:25:56.388Z,101441.25
2018-09-09T09:28:24.964Z,101445.13
2018-09-09T09:30:53.978Z,101439.11
2018-09-09T09:33:22.552Z,101445.58
2018-09-09T09:35:53.203Z,101447.73
2018-09-09T09:38:22.438Z,101445.14
2018-09-09T09:40:51.379Z,101447.28
2018-09-09T09:43:19.789Z,101446.41
2018-09-09T09:45:48.240Z,101448.52
2018-09-09T09:48:16.699Z,101449.81
2018-09-09T09:50:45.139Z,101447.20
2018-09-09T09:53:13.588Z,101447.20
2018-09-09T09:55:42.012Z,101452.34
2018-09-09T09:58:10.516Z,101449.77
2018-09-09T10:00:44.119Z,101452.84
2018-09-09T10:03:12.676Z,101454.15
2018-09-09T10:05:41.143Z,101451.97
2018-09-09T10:08:09.716Z,101450.66
2018-09-09T10:10:38.153Z,101447.65
2018-09-09T10:13:06.600Z,101452.42
2018-09-09T10:15:35.089Z,101446.80
2018-09-09T10:18:03.488Z,101446.80
2018-09-09T10:20:31.956Z,101447.55
2018-09-09T10:23:00.473Z,101442.64
2018-09-09T10:25:28.905Z,101443.02
2018-09-09T10:27:57.352Z,101436.05
2018-09-09T10:30:25.818Z,101441.62
2018-09-09T10:32:54.660Z,101448.45
2018-09-09T10:35:23.166Z,101451.06
2018-09-09T10:37:51.620Z,101443.31
2018-09-09T10:40:20.053Z,101434.28
2018-09-09T10:42:48.424Z,101442.86
2018-09-09T10:45:16.882Z,101443.61
2018-09-09T10:47:45.336Z,101440.02
2018-09-09T10:50:13.747Z,101432.71
2018-09-09T10:52:42.236Z,101444.59
2018-09-09T10:55:10.960Z,101441.80
2018-09-09T10:57:39.390Z,101441.70
2018-09-09T11:00:08.103Z,101444.31
2018-09-09T11:02:36.499Z,101446.38
2018-09-09T11:05:04.963Z,101437.70
2018-09-09T11:07:33.443Z,101432.96
2018-09-09T11:10:02.488Z,101430.34
2018-09-09T11:12:31.883Z,101426.05
2018-09-09T11:15:02.370Z,101428.08
2018-09-09T11:17:31.456Z,101425.38
2018-09-09T11:20:00.003Z,101429.40
2018-09-09T11:22:29.230Z,101430.67
2018-09-09T11:24:57.743Z,101425.81
2018-09-09T11:27:26.720Z,101420.63
2018-09-09T11:29:55.181Z,101418.44
2018-09-09T11:32:23.606Z,101417.53
2018-09-09T11:34:52.025Z,101418.34
2018-09-09T11:37:20.476Z,101411.84
2018-09-09T11:39:48.852Z,101418.23
2018-09-09T11:42:17.325Z,101411.55
2018-09-09T11:44:45.789Z,101417.14
2018-09-09T11:47:14.180Z,101414.43
2018-09-09T11:49:43.316Z,101416.25
2018-09-09T11:52:11.784Z,101417.99
2018-09-09T11:54:40.835Z,101399.70
2018-09-09T11:57:09.280Z,101399.28
2018-09-09T11:59:37.694Z,101402.23
2018-09-09T12:02:06.239Z,101402.05
2018-09-09T12:04:34.722Z,101405.07
2018-09-09T12:07:03.175Z,101404.19
2018-09-09T12:09:32.209Z,101408.83
2018-09-09T12:12:00.666Z,101408.51
2018-09-09T12:14:29.105Z,101402.02
2018-09-09T12:16:58.438Z,101396.56
2018-09-09T12:19:26.842Z,101388.03
2018-09-09T12:21:55.289Z,101389.59
2018-09-09T12:24:23.707Z,101393.58
2018-09-09T12:26:52.100Z,101381.46
2018-09-09T12:29:20.599Z,101381.91
2018-09-09T12:31:48.997Z,101390.16
2018-09-09T12:34:17.446Z,101384.54
2018-09-09T12:36:45.907Z,101381.43
2018-09-09T12:39:14.339Z,101388.51
2018-09-09T12:41:42.778Z,101381.13
2018-09-09T12:44:16.597Z,101379.92
2018-09-09T12:46:50.362Z,101386.74
2018-09-09T12:49:18.822Z,101389.80
2018-09-09T12:51:47.253Z,101380.64
2018-09-09T12:54:15.700Z,101380.13
2018-09-09T12:56:44.129Z,101384.14
2018-09-09T12:59:12.590Z,101387.22
2018-09-09T13:01:41.029Z,101381.02
2018-09-09T13:04:09.461Z,101373.09
2018-09-09T13:06:37.947Z,101372.11
2018-09-09T13:09:07.724Z,101370.45
2018-09-09T13:11:36.215Z,101374.06
2018-09-09T13:14:04.769Z,101372.77
2018-09-09T13:16:33.226Z,101379.42
2018-09-09T13:19:01.679Z,101374.77
2018-09-09T13:21:32.099Z,101376.73
2018-09-09T13:24:01.554Z,101379.52
2018-09-09T13:26:30.009Z,101379.28
2018-09-09T13:28:58.564Z,101379.83
2018-09-09T13:31:27.024Z,101372.25
2018-09-09T13:33:55.617Z,101385.00
2018-09-09T13:36:24.620Z,101383.63
2018-09-09T13:38:53.159Z,101380.38
2018-09-09T13:41:21.624Z,101370.64
2018-09-09T13:43:51.486Z,101365.19
2018-09-09T13:46:20.988Z,101357.92
2018-09-09T13:48:49.496Z,101369.22
2018-09-09T13:51:17.908Z,101366.27
2018-09-09T13:53:46.416Z,101361.95
2018-09-09T13:56:16.004Z,101362.02
2018-09-09T13:58:44.747Z,101358.05
2018-09-09T14:01:14.073Z,101357.52
2018-09-09T14:03:42.620Z,101360.23
2018-09-09T14:06:10.998Z,101365.14
2018-09-09T14:08:39.533Z,101366.23
2018-09-09T14:11:08.801Z,101369.31
2018-09-09T14:13:37.498Z,101366.75
2018-09-09T14:16:06.244Z,101368.70
2018-09-09T14:18:35.809Z,101370.95
2018-09-09T14:21:05.180Z,101372.29
2018-09-09T14:23:33.615Z,101366.73
2018-09-09T14:26:02.099Z,101367.25
2018-09-09T14:28:30.748Z,101367.34
2018-09-09T14:30:59.198Z,101373.50
2018-09-09T14:33:27.641Z,101358.05
2018-09-09T14:35:56.244Z,101356.88
2018-09-09T14:38:24.681Z,101359.10
2018-09-09T14:40:53.086Z,101353.05
2018-09-09T14:43:21.611Z,101356.09
2018-09-09T14:45:50.223Z,101357.33
2018-09-09T14:48:18.669Z,101358.63
2018-09-09T14:50:47.109Z,101359.03
2018-09-09T14:53:15.629Z,101350.38
2018-09-09T14:55:43.984Z,101357.08
2018-09-09T14:58:12.428Z,101332.11
2018-09-09T15:00:40.925Z,101351.42
2018-09-09T15:03:09.454Z,101351.02
2018-09-09T15:05:37.895Z,101351.48
2018-09-09T15:08:06.399Z,101352.31
2018-09-09T15:10:35.614Z,101350.09
2018-09-09T15:13:04.318Z,101345.17
2018-09-09T15:15:33.696Z,101348.49
2018-09-09T15:18:02.596Z,101343.28
2018-09-09T15:20:32.126Z,101348.02
2018-09-09T15:23:00.680Z,101346.78
2018-09-09T15:25:29.135Z,101351.23
2018-09-09T15:27:57.539Z,101352.20
2018-09-09T15:30:26.064Z,101345.69
2018-09-09T15:32:54.552Z,101341.81
2018-09-09T15:35:23.266Z,101344.39
2018-09-09T15:37:56.133Z,101343.84
2018-09-09T15:40:24.553Z,101338.97
2018-09-09T15:42:53.121Z,101335.71
2018-09-09T15:45:21.653Z,101327.27
2018-09-09T15:47:50.168Z,101331.92
2018-09-09T15:50:18.597Z,101331.80
2018-09-09T15:52:47.107Z,101325.03
2018-09-09T15:55:15.541Z,101325.89
2018-09-09T15:57:45.030Z,101325.80
2018-09-09T16:00:14.167Z,101323.84
2018-09-09T16:02:42.898Z,101325.78
2018-09-09T16:05:11.698Z,101316.89
2018-09-09T16:07:40.115Z,101322.66
2018-09-09T16:10:08.636Z,101323.55
2018-09-09T16:12:37.678Z,101315.81
2018-09-09T16:15:06.644Z,101317.11
2018-09-09T16:17:35.137Z,101322.73
2018-09-09T16:20:04.129Z,101311.02
2018-09-09T16:22:32.672Z,101317.52
2018-09-09T16:25:01.120Z,101316.22
2018-09-09T16:27:29.609Z,101311.38
2018-09-09T16:29:58.185Z,101309.11
2018-09-09T16:32:26.649Z,101314.63
2018-09-09T16:34:55.128Z,101316.30
2018-09-09T16:37:23.710Z,101320.12
2018-09-09T16:39:52.184Z,101318.30
2018-09-09T16:42:20.620Z,101316.06
2018-09-09T16:44:49.968Z,101307.88
2018-09-09T16:47:18.575Z,101317.11
2018-09-09T16:49:46.998Z,101314.50
2018-09-09T16:52:15.418Z,101314.47
2018-09-09T16:54:44.035Z,101311.02
2018-09-09T16:57:12.500Z,101314.10
2018-09-09T16:59:41.050Z,101317.59
2018-09-09T17:02:09.714Z,101315.48
2018-09-09T17:04:38.854Z,101307.67
2018-09-09T17:07:07.460Z,101307.30
2018-09-09T17:09:36.519Z,101311.69
2018-09-09T17:12:04.986Z,101306.55
2018-09-09T17:14:33.406Z,101302.27
2018-09-09T17:17:01.828Z,101313.62
2018-09-09T17:19:30.277Z,101308.52
2018-09-09T17:21:58.652Z,101304.69
2018-09-09T17:24:27.449Z,101305.17
2018-09-09T17:26:56.523Z,101311.31
2018-09-09T17:29:25.019Z,101317.95
2018-09-09T17:31:53.458Z,101314.59
2018-09-09T17:34:21.937Z,101319.02
2018-09-09T17:36:51.241Z,101313.54
2018-09-09T17:39:19.668Z,101312.38
2018-09-09T17:41:48.096Z,101310.73
2018-09-09T17:44:17.064Z,101316.50
2018-09-09T17:46:46.589Z,101315.33
2018-09-09T17:49:15.077Z,101319.33
2018-09-09T17:51:44.145Z,101317.71
2018-09-09T17:54:12.600Z,101319.11
2018-09-09T17:56:41.020Z,101317.84
2018-09-09T17:59:09.488Z,101316.66
2018-09-09T18:01:38.252Z,101317.19
2018-09-09T18:04:07.768Z,101325.52
2018-09-09T18:06:36.239Z,101324.39
2018-09-09T18:09:06.412Z,101326.21
2018-09-09T18:11:34.948Z,101324.23
2018-09-09T18:14:04.406Z,101324.28
2018-09-09T18:16:32.873Z,101322.17
2018-09-09T18:19:01.443Z,101323.53
2018-09-09T18:21:29.932Z,101321.51
2018-09-09T18:23:58.320Z,101334.09
2018-09-09T18:26:26.774Z,101332.02
2018-09-09T18:28:55.196Z,101331.31
2018-09-09T18:31:23.629Z,101340.03
2018-09-09T18:33:52.757Z,101334.10
2018-09-09T18:36:21.165Z,101341.50
2018-09-09T18:38:50.374Z,101333.48
2018-09-09T18:41:18.790Z,101345.62
2018-09-09T18:43:47.245Z,101342.25
2018-09-09T18:46:15.723Z,101344.45
2018-09-09T18:48:44.212Z,101337.56
2018-09-09T18:51:12.655Z,101341.09
2018-09-09T18:53:41.178Z,101338.59
2018-09-09T18:56:09.622Z,101343.40
2018-09-09T18:58:38.972Z,101341.23
2018-09-09T19:01:07.418Z,101351.23
2018-09-09T19:03:35.898Z,101352.23
2018-09-09T19:06:04.597Z,101351.45
2018-09-09T19:08:33.118Z,101356.73
2018-09-09T19:11:01.579Z,101354.09
2018-09-09T19:13:30.257Z,101350.20
2018-09-09T19:16:00.880Z,101354.16
2018-09-09T19:18:29.373Z,101355.09
2018-09-09T19:20:58.357Z,101357.26
2018-09-09T19:23:26.830Z,101356.00
2018-09-09T19:25:55.280Z,101352.16
2018-09-09T19:28:23.705Z,101358.70
2018-09-09T19:30:52.258Z,101358.80
2018-09-09T19:33:21.645Z,101355.39
2018-09-09T19:35:50.097Z,101363.62
2018-09-09T19:38:18.507Z,101361.58
2018-09-09T19:40:46.936Z,101361.58
2018-09-09T19:43:16.396Z,101366.33
2018-09-09T19:45:44.965Z,101370.64
2018-09-09T19:48:13.462Z,101368.53
2018-09-09T19:50:42.559Z,101374.16
2018-09-09T19:53:10.990Z,101374.20
2018-09-09T19:55:40.093Z,101376.33
2018-09-09T19:58:08.990Z,101370.36
2018-09-09T20:00:37.438Z,101376.88
2018-09-09T20:03:06.189Z,101371.70
2018-09-09T20:05:34.651Z,101372.14
2018-09-09T20:08:03.087Z,101369.97
2018-09-09T20:10:31.547Z,101379.07
2018-09-09T20:13:00.108Z,101373.48
2018-09-09T20:15:28.629Z,101368.77
2018-09-09T20:17:57.070Z,101376.95
2018-09-09T20:20:26.560Z,101375.22
2018-09-09T20:22:55.372Z,101376.53
2018-09-09T20:25:23.828Z,101384.34
2018-09-09T20:27:52.224Z,101382.22
2018-09-09T20:30:20.692Z,101379.21
2018-09-09T20:32:49.164Z,101381.36
2018-09-09T20:35:17.766Z,101383.50
2018-09-09T20:37:46.232Z,101381.38
2018-09-09T20:40:14.669Z,101378.78
2018-09-09T20:42:43.095Z,101376.62
2018-09-09T20:45:11.551Z,101382.68
2018-09-09T20:47:40.041Z,101378.38
2018-09-09T20:50:08.505Z,101379.70
2018-09-09T20:52:37.836Z,101384.02
2018-09-09T20:55:06.450Z,101377.14
2018-09-09T20:57:34.869Z,101379.73
2018-09-09T21:00:03.347Z,101382.34
2018-09-09T21:02:33.056Z,101380.62
2018-09-09T21:05:01.591Z,101374.57
2018-09-09T21:07:31.134Z,101374.98
2018-09-09T21:09:59.562Z,101379.30
2018-09-09T21:12:28.063Z,101375.00
2018-09-09T21:14:56.542Z,101372.88
2018-09-09T21:17:25.114Z,101368.98
2018-09-09T21:19:54.500Z,101368.13
2018-09-09T21:22:23.004Z,101370.72
2018-09-09T21:24:51.480Z,101370.73
2018-09-09T21:27:19.976Z,101367.28
2018-09-09T21:29:48.395Z,101368.99
2018-09-09T21:32:16.818Z,101365.13
2018-09-09T21:34:45.253Z,101359.13
2018-09-09T21:37:13.692Z,101361.23
2018-09-09T21:39:42.139Z,101355.21
2018-09-09T21:42:10.672Z,101352.64
2018-09-09T21:44:39.069Z,101346.60
2018-09-09T21:47:07.582Z,101347.48
2018-09-09T21:49:36.035Z,101344.47
2018-09-09T21:52:04.515Z,101349.63
2018-09-09T21:54:33.271Z,101346.61
2018-09-09T21:57:01.756Z,101348.77
2018-09-09T21:59:30.196Z,101347.91
2018-09-09T22:02:03.242Z,101349.63
2018-09-09T22:04:31.981Z,101348.33
2018-09-09T22:07:00.965Z,101348.34
2018-09-09T22:09:29.433Z,101346.19
2018-09-09T22:11:58.811Z,101296.72
2018-09-09T22:14:27.344Z,101333.71
2018-09-09T22:16:55.801Z,101332.84
2018-09-09T22:19:24.578Z,101331.98
2018-09-09T22:21:53.077Z,101331.13
2018-09-09T22:24:21.942Z,101330.28
2018-09-09T22:26:50.561Z,101325.11
2018-09-09T22:29:19.145Z,101327.24
2018-09-09T22:31:47.513Z,101326.39
2018-09-09T22:34:16.256Z,101325.95
2018-09-09T22:36:44.704Z,101325.53
2018-09-09T22:39:13.112Z,101326.39
2018-09-09T22:41:41.499Z,101322.95
2018-09-09T22:44:11.700Z,101326.82
2018-09-09T22:46:40.337Z,101331.13
2018-09-09T22:49:08.827Z,101332.82
2018-09-09T22:51:37.318Z,101328.95
2018-09-09T22:54:05.872Z,101328.55
2018-09-09T22:56:34.450Z,101332.84
2018-09-09T22:59:02.960Z,101334.56
2018-09-09T23:01:31.437Z,101329.40
2018-09-09T23:03:59.918Z,101335.44
2018-09-09T23:06:28.373Z,101336.73
2018-09-09T23:08:56.868Z,101335.00
2018-09-09T23:11:25.235Z,101327.70
2018-09-09T23:13:55.696Z,101327.26
2018-09-09T23:16:24.518Z,101326.39
2018-09-09T23:18:53.002Z,101327.25
2018-09-09T23:21:21.421Z,101319.50
2018-09-09T23:23:49.958Z,101321.66
2018-09-09T23:26:22.358Z,101323.39
2018-09-09T23:28:50.847Z,101314.78
2018-09-09T23:31:19.327Z,101316.08
2018-09-09T23:33:56.511Z,101314.76
2018-09-09T23:36:26.854Z,101319.95
2018-09-09T23:38:58.757Z,101318.23
2018-09-09T23:41:27.241Z,101309.59
2018-09-09T23:43:57.477Z,101301.42
2018-09-09T23:46:25.932Z,101308.75
2018-09-09T23:48:54.305Z,101308.31
2018-09-09T23:51:25.492Z,101311.33
2018-09-09T23:53:53.884Z,101311.75
2018-09-09T23:56:22.355Z,101312.19
2018-09-09T23:58:50.810Z,101316.06
